Albuquerque, NM

12:27 AM MST on February 06, 2016 (GMT -0700)
Sandia Ridge | | Change Station
CLOSE
Current Station
Personal Weather Station
Location: Albuquerque, NM
Elevation: 5210 ft
Nearby Weather Stations

Elev 5210 ft 35.10 °N, 106.59 °W | Updated 13 minutes ago

Clear
Clear
26.2 °F
Feels Like 26 °F
N
0.0
Wind Variable Wind from West

Today
High -- | Low -- °F
--% Chance of Precip.
Yesterday
High -- | Low -- °F
Precip. -- in
Pressure 30.52 in
Visibility 10.0 miles
Clouds Clear
Windchill 26 °F
Dew Point 12 °F
Humidity 55%
Rainfall 0.00 in
Snow Depth Not available.
7:01 AM 5:39 PM
Waning Crescent, 7% visible
METAR KABQ 060652Z 33011KT 10SM CLR M01/M11 A3048 RMK AO2 SLP334 T10111111 400611050
Pressure 30.52 in
Visibility 10.0 miles
Clouds Clear
Windchill 26 °F
Dew Point 12 °F
Humidity 55%
Rainfall 0.00 in
Snow Depth Not available.
7:01 AM 5:39 PM
Waning Crescent, 7% visible
METAR KABQ 060652Z 33011KT 10SM CLR M01/M11 A3048 RMK AO2 SLP334 T10111111 400611050

10-Day Weather Forecast

Almanac

Astronomy

Feb. 06, 2016 Rise Set
Actual Time
Civil Twilight
Nautical Twilight
Astronomical Twilight
Moon
Length of Visible Light
Length of Day
Tomorrow will be .
, % of the Moon is Illuminated

Today's Extremes

State Highs State Lows

Community

WunderPhotos

Upload Photos

1,890,933 photos uploaded!

WunderBlog® & News

Nearby

Air Quality

  Air Quality AQ Index Pollutant
Not available.

Snow Depth

Station Depth Elevation

Earthquake Activity

City Distance Mag. Time & Date
Minimum magnitude displayed is 2.5.

Coastal Water Temperatures

Place Temperature

Stations

Nearby Weather Stations

Station Location Temp. Windchill Dew Point Humidity Wind Precip. Elev Updated Type
                   

Watches & Warnings

There are currently no watches in effect.